Strona główna
METAR-TAF:

METAR-TAF

Lotnisko :

Port lotniczy Fredericton

Fredericton, Nowy Brunszwik, Kanada

Szerokość geograficzna: 45-52N, Długość geograficzna: 066-32W, wysokość: 17 m

Aktualna obserwacja pogody

Raport powstał 23 minut temu, godzina 17:00 UTC
Wiatr 10 kt od zachodnio-południowy zachód, zmienny między południowy zachód i zachodnio-północny zachód
Temperatura -4°C
Wilgotność 54%
Ciśnienie 1029 hPa
Widzialność: 14.5 km
bezchmurnie

METAR: CYFC 081700Z AUTO 24010KT 220V290 9SM CLR M04/M12 A3039 RMK SLP294

czas: 13:23 (17:23 UTC)

Prognoza

Raport powstał 5 godziny i 45 minut temu, godzina 11:38 UTC
Prognoza ważna od 08 godzina 12 UTC do 08 godzina 24 UTC
Wiatr 6 kt od południowo-południowy zachód
Widzialność: 10 km
Mało chmury na wysokości 5000 ft
Od 08 godzina 2200 UTC
Wiatr 10 kt od południowo-południowy zachód
Widzialność: 10 km
Przerywane chmury na wysokości 12000 ft

TAF: CYFC 081138Z 0812/0824 21006KT P6SM FEW050 FM082200 21010KT P6SM BKN120 RMK FCST BASED ON AUTO OBS. NXT FCST BY 081800Z

Obserwacja i prognoza pogody dla ponad 4000 lotnisk (raport METAR i TAF).

Dostępne stacje oznaczono żółtymi i czerwonymi punktami na mapie.

Najedź kursorem aby zobaczyć nazwę stacji.

Kliknij aby zobaczyć obserwacje i prognozy pogody.

Aby zmienić mapę: kliknij na zielony przycisk z czarnym krzyżykiem, aby powiększyć; na zielony przycisk z myślnikiem, aby pomniejszyć; na zielone strzałki, aby przejść do map sąsiednich.


METAR-TAF: